Coral Favia — PHKM — position and weather

sailwx.info

Track history (hours):
 
Tides and Currents Weather Stations Pressure Air Temp Water Temp Dewpoint Dewpoint Depression Visibility Wind Speed Wind Dir Waves Ship Positions

Coral Favia

Last reported at 2015-Aug-30 00:32 UTC. Time now 2015-Aug-30 01:33 UTC.
Position N 51°57' E 003°45'.

Length 100 m; beam 17 m.

Type: Tanker. MMSI: 244627000.

Date/timePositionNaut miles runAvg speedWind from/ knotsBaromVisibWave heightAir tempDewpointWater temp
2015-Aug-30 00:32N 51°57' E 003°45'0 0.1
2015-Aug-29 23:32N 51°57' E 003°44'0 0.0
2015-Aug-29 22:26N 51°57' E 003°44'0 0.0
2015-Aug-29 21:32N 51°57' E 003°44'0 0.0
2015-Aug-29 20:29N 51°57' E 003°44'0 0.0
2015-Aug-29 19:32N 51°57' E 003°44'0 0.0
2015-Aug-29 18:32N 51°57' E 003°44'0 0.0
2015-Aug-29 17:32N 51°57' E 003°44'0 0.1
2015-Aug-29 16:29N 51°57' E 003°45'0 0.0
2015-Aug-29 15:29N 51°57' E 003°45'0 0.0
2015-Aug-29 14:29N 51°57' E 003°45'0 0.0
2015-Aug-29 13:32N 51°57' E 003°45'0 0.0
2015-Aug-29 12:32N 51°57' E 003°45'0 0.1
2015-Aug-29 11:17N 51°57' E 003°44'0 0.1
2015-Aug-29 10:29N 51°57' E 003°44'0 0.0
2015-Aug-29 09:32N 51°57' E 003°44'0 0.0
2015-Aug-29 08:32N 51°57' E 003°44'0 0.0
2015-Aug-29 07:29N 51°57' E 003°44'0 0.0
2015-Aug-29 06:32N 51°57' E 003°44'0 0.1
2015-Aug-29 05:29N 51°57' E 003°45'0 0.0
2015-Aug-29 04:26N 51°57' E 003°45'0 0.0
2015-Aug-29 02:23N 51°57' E 003°45'0 0.0
2015-Aug-29 01:23N 51°57' E 003°45'0 0.0
2015-Aug-29 00:29N 51°57' E 003°45'0 0.0
2015-Aug-28 23:32N 51°57' E 003°45'0 0.0
2015-Aug-28 20:26N 51°57' E 003°44'0 0.0
2015-Aug-28 19:32N 51°57' E 003°44'0 0.1
2015-Aug-28 18:08N 51°57' E 003°45'0 0.1
2015-Aug-28 17:14N 51°57' E 003°45'0 0.0
2015-Aug-28 16:26N 51°57' E 003°45'0 0.0
2015-Aug-28 15:32N 51°57' E 003°45'0 0.0
2015-Aug-28 14:29N 51°57' E 003°45'0 0.0
2015-Aug-28 13:26N 51°57' E 003°45'0 0.0
2015-Aug-28 12:29N 51°57' E 003°45'0 0.0
2015-Aug-28 11:26N 51°57' E 003°45'1 1.2
2015-Aug-28 10:33N 51°57' E 003°43'1010.5
2015-Aug-28 09:32N 51°56' E 003°26'4011.9
2015-Aug-28 06:09N 51°38' E 002°27'1112.0
2015-Aug-28 05:12N 51°30' E 002°15'1012.1
2015-Aug-28 04:21N 51°21' E 002°07'911.5
2015-Aug-28 03:34N 51°13' E 001°60'1313.0
2015-Aug-28 02:34N 51°05' E 001°43'1413.8
2015-Aug-28 01:33N 50°55' E 001°28'439 9.8
2015-Aug-26 04:32N 44°29' W 003°41'1212.6
2015-Aug-26 03:33N 44°17' W 003°35'  
2015-Aug-22 02:19N 45°29' W 004°13'1013.2
2015-Aug-22 01:34N 45°39' W 004°18'1413.5
2015-Aug-22 00:33N 45°51' W 004°25'1313.4
2015-Aug-21 23:33N 46°04' W 004°32'1413.5
2015-Aug-21 22:33N 46°16' W 004°39'1313.3
2015-Aug-21 21:33N 46°29' W 004°46'1413.4
2015-Aug-21 20:33N 46°41' W 004°53'2713.8
2015-Aug-21 18:33N 47°07' W 005°07'1313.3
2015-Aug-21 17:34N 47°19' W 005°14'1913.0
2015-Aug-21 16:06N 47°37' W 005°24'913.2
2015-Aug-21 15:25N 47°46' W 005°29'1313.2
2015-Aug-21 14:27N 47°57' W 005°36'89 9.6
2015-Aug-21 05:08N 49°19' W 004°40'20112.8
2015-Aug-20 13:22N 50°31' E 000°12'1111.4
2015-Aug-20 12:23N 50°34' E 000°29'911.2
2015-Aug-20 11:33N 50°38' E 000°42'1212.4
2015-Aug-20 10:33N 50°45' E 000°59'1413.9
2015-Aug-20 09:32N 50°54' E 001°16'1414.6
2015-Aug-20 08:33N 51°04' E 001°31'1313.3
2015-Aug-20 07:33N 51°14' E 001°46'1212.1
2015-Aug-20 06:33N 51°24' E 001°56'1211.6
2015-Aug-20 05:33N 51°33' E 002°07'4711.6
2015-Aug-20 01:29N 52°02' E 003°08'  
Track history (hours):
 
Tides and Currents Weather Stations Pressure Air Temp Water Temp Dewpoint Dewpoint Depression Visibility Wind Speed Wind Dir Waves Ship Positions

Coral Favia

Last reported at 2015-Aug-30 00:32 UTC. Time now 2015-Aug-30 01:33 UTC.
Position N 51°57' E 003°45'.

Length 100 m; beam 17 m.

Type: Tanker. MMSI: 244627000.

Date/timePositionNaut miles runAvg speedWind from/ knotsBaromVisibWave heightAir tempDewpointWater temp
2015-Aug-30 00:32N 51°57' E 003°45'0 0.1
2015-Aug-29 23:32N 51°57' E 003°44'0 0.0
2015-Aug-29 22:26N 51°57' E 003°44'0 0.0
2015-Aug-29 21:32N 51°57' E 003°44'0 0.0
2015-Aug-29 20:29N 51°57' E 003°44'0 0.0
2015-Aug-29 19:32N 51°57' E 003°44'0 0.0
2015-Aug-29 18:32N 51°57' E 003°44'0 0.0
2015-Aug-29 17:32N 51°57' E 003°44'0 0.1
2015-Aug-29 16:29N 51°57' E 003°45'0 0.0
2015-Aug-29 15:29N 51°57' E 003°45'0 0.0
2015-Aug-29 14:29N 51°57' E 003°45'0 0.0
2015-Aug-29 13:32N 51°57' E 003°45'0 0.0
2015-Aug-29 12:32N 51°57' E 003°45'0 0.1
2015-Aug-29 11:17N 51°57' E 003°44'0 0.1
2015-Aug-29 10:29N 51°57' E 003°44'0 0.0
2015-Aug-29 09:32N 51°57' E 003°44'0 0.0
2015-Aug-29 08:32N 51°57' E 003°44'0 0.0
2015-Aug-29 07:29N 51°57' E 003°44'0 0.0
2015-Aug-29 06:32N 51°57' E 003°44'0 0.1
2015-Aug-29 05:29N 51°57' E 003°45'0 0.0
2015-Aug-29 04:26N 51°57' E 003°45'0 0.0
2015-Aug-29 02:23N 51°57' E 003°45'0 0.0
2015-Aug-29 01:23N 51°57' E 003°45'0 0.0
2015-Aug-29 00:29N 51°57' E 003°45'0 0.0
2015-Aug-28 23:32N 51°57' E 003°45'0 0.0
2015-Aug-28 20:26N 51°57' E 003°44'0 0.0
2015-Aug-28 19:32N 51°57' E 003°44'0 0.1
2015-Aug-28 18:08N 51°57' E 003°45'0 0.1
2015-Aug-28 17:14N 51°57' E 003°45'0 0.0
2015-Aug-28 16:26N 51°57' E 003°45'0 0.0
2015-Aug-28 15:32N 51°57' E 003°45'0 0.0
2015-Aug-28 14:29N 51°57' E 003°45'0 0.0
2015-Aug-28 13:26N 51°57' E 003°45'0 0.0
2015-Aug-28 12:29N 51°57' E 003°45'0 0.0
2015-Aug-28 11:26N 51°57' E 003°45'1 1.2
2015-Aug-28 10:33N 51°57' E 003°43'1010.5
2015-Aug-28 09:32N 51°56' E 003°26'4011.9
2015-Aug-28 06:09N 51°38' E 002°27'1112.0
2015-Aug-28 05:12N 51°30' E 002°15'1012.1
2015-Aug-28 04:21N 51°21' E 002°07'911.5
2015-Aug-28 03:34N 51°13' E 001°60'1313.0
2015-Aug-28 02:34N 51°05' E 001°43'1413.8
2015-Aug-28 01:33N 50°55' E 001°28'439 9.8
2015-Aug-26 04:32N 44°29' W 003°41'1212.6
2015-Aug-26 03:33N 44°17' W 003°35'  
2015-Aug-22 02:19N 45°29' W 004°13'1013.2
2015-Aug-22 01:34N 45°39' W 004°18'1413.5
2015-Aug-22 00:33N 45°51' W 004°25'1313.4
2015-Aug-21 23:33N 46°04' W 004°32'1413.5
2015-Aug-21 22:33N 46°16' W 004°39'1313.3
2015-Aug-21 21:33N 46°29' W 004°46'1413.4
2015-Aug-21 20:33N 46°41' W 004°53'2713.8
2015-Aug-21 18:33N 47°07' W 005°07'1313.3
2015-Aug-21 17:34N 47°19' W 005°14'1913.0
2015-Aug-21 16:06N 47°37' W 005°24'913.2
2015-Aug-21 15:25N 47°46' W 005°29'1313.2
2015-Aug-21 14:27N 47°57' W 005°36'89 9.6
2015-Aug-21 05:08N 49°19' W 004°40'20112.8
2015-Aug-20 13:22N 50°31' E 000°12'1111.4
2015-Aug-20 12:23N 50°34' E 000°29'911.2
2015-Aug-20 11:33N 50°38' E 000°42'1212.4
2015-Aug-20 10:33N 50°45' E 000°59'1413.9
2015-Aug-20 09:32N 50°54' E 001°16'1414.6
2015-Aug-20 08:33N 51°04' E 001°31'1313.3
2015-Aug-20 07:33N 51°14' E 001°46'1212.1
2015-Aug-20 06:33N 51°24' E 001°56'1211.6
2015-Aug-20 05:33N 51°33' E 002°07'4711.6
2015-Aug-20 01:29N 52°02' E 003°08'  

Dump ship's entire track history